sensor_id;sensor_type;location;lat;lon;timestamp;P1;durP1;ratioP1;P2;durP2;ratioP2
42668;SDS011;29384;42.028;21.388;2023-06-04T00:01:58;6.70;;;3.95;;
42668;SDS011;29384;42.028;21.388;2023-06-04T00:04:25;4.13;;;3.75;;
42668;SDS011;29384;42.028;21.388;2023-06-04T00:06:50;4.30;;;3.40;;
42668;SDS011;29384;42.028;21.388;2023-06-04T00:09:15;4.03;;;3.72;;
42668;SDS011;29384;42.028;21.388;2023-06-04T00:11:40;4.82;;;3.78;;
42668;SDS011;29384;42.028;21.388;2023-06-04T00:14:06;3.92;;;3.58;;
42668;SDS011;29384;42.028;21.388;2023-06-04T00:16:31;3.08;;;2.72;;
42668;SDS011;29384;42.028;21.388;2023-06-04T00:18:57;3.55;;;3.35;;
42668;SDS011;29384;42.028;21.388;2023-06-04T00:21:22;9.65;;;4.78;;
42668;SDS011;29384;42.028;21.388;2023-06-04T00:23:47;3.67;;;3.30;;
42668;SDS011;29384;42.028;21.388;2023-06-04T00:29:15;3.92;;;3.45;;
42668;SDS011;29384;42.028;21.388;2023-06-04T00:31:40;7.18;;;2.88;;
42668;SDS011;29384;42.028;21.388;2023-06-04T00:34:06;2.85;;;2.63;;
42668;SDS011;29384;42.028;21.388;2023-06-04T00:36:31;2.60;;;2.50;;
42668;SDS011;29384;42.028;21.388;2023-06-04T00:38:56;2.70;;;2.55;;
42668;SDS011;29384;42.028;21.388;2023-06-04T00:44:24;3.63;;;3.42;;
42668;SDS011;29384;42.028;21.388;2023-06-04T00:46:51;3.20;;;2.97;;
42668;SDS011;29384;42.028;21.388;2023-06-04T00:49:18;3.75;;;3.50;;
42668;SDS011;29384;42.028;21.388;2023-06-04T00:51:44;2.67;;;2.58;;
42668;SDS011;29384;42.028;21.388;2023-06-04T00:54:09;3.70;;;2.80;;
42668;SDS011;29384;42.028;21.388;2023-06-04T00:59:38;5.25;;;2.47;;
42668;SDS011;29384;42.028;21.388;2023-06-04T01:02:16;3.65;;;2.65;;
42668;SDS011;29384;42.028;21.388;2023-06-04T01:07:20;7.28;;;2.97;;
42668;SDS011;29384;42.028;21.388;2023-06-04T01:09:46;7.03;;;3.10;;
42668;SDS011;29384;42.028;21.388;2023-06-04T01:12:12;8.18;;;2.60;;
42668;SDS011;29384;42.028;21.388;2023-06-04T01:14:38;3.03;;;2.20;;
42668;SDS011;29384;42.028;21.388;2023-06-04T01:22:44;6.82;;;3.00;;
42668;SDS011;29384;42.028;21.388;2023-06-04T01:27:49;9.25;;;3.13;;
42668;SDS011;29384;42.028;21.388;2023-06-04T01:30:15;5.25;;;2.45;;
42668;SDS011;29384;42.028;21.388;2023-06-04T01:32:41;8.55;;;2.20;;
42668;SDS011;29384;42.028;21.388;2023-06-04T01:35:12;7.20;;;2.67;;
42668;SDS011;29384;42.028;21.388;2023-06-04T01:37:38;5.45;;;2.30;;
42668;SDS011;29384;42.028;21.388;2023-06-04T01:40:03;4.90;;;2.45;;
42668;SDS011;29384;42.028;21.388;2023-06-04T01:42:30;19.55;;;3.53;;
42668;SDS011;29384;42.028;21.388;2023-06-04T01:44:55;16.50;;;2.70;;
42668;SDS011;29384;42.028;21.388;2023-06-04T01:47:20;3.95;;;2.85;;
42668;SDS011;29384;42.028;21.388;2023-06-04T01:49:46;16.40;;;2.47;;
42668;SDS011;29384;42.028;21.388;2023-06-04T01:52:11;2.40;;;2.03;;
42668;SDS011;29384;42.028;21.388;2023-06-04T01:54:36;5.65;;;2.78;;
42668;SDS011;29384;42.028;21.388;2023-06-04T02:00:07;6.38;;;3.08;;
42668;SDS011;29384;42.028;21.388;2023-06-04T02:02:36;7.82;;;3.22;;
42668;SDS011;29384;42.028;21.388;2023-06-04T02:05:02;5.50;;;2.95;;
42668;SDS011;29384;42.028;21.388;2023-06-04T02:07:27;3.13;;;2.83;;
42668;SDS011;29384;42.028;21.388;2023-06-04T02:09:52;7.55;;;2.53;;
42668;SDS011;29384;42.028;21.388;2023-06-04T02:15:20;3.35;;;2.22;;
42668;SDS011;29384;42.028;21.388;2023-06-04T02:17:47;3.60;;;2.15;;
42668;SDS011;29384;42.028;21.388;2023-06-04T02:20:12;2.63;;;1.85;;
42668;SDS011;29384;42.028;21.388;2023-06-04T02:22:37;3.70;;;2.22;;
42668;SDS011;29384;42.028;21.388;2023-06-04T02:25:03;1.65;;;1.65;;
42668;SDS011;29384;42.028;21.388;2023-06-04T02:27:29;3.47;;;2.28;;
42668;SDS011;29384;42.028;21.388;2023-06-04T02:29:54;1.88;;;1.77;;
42668;SDS011;29384;42.028;21.388;2023-06-04T02:32:20;4.43;;;2.35;;
42668;SDS011;29384;42.028;21.388;2023-06-04T02:34:45;2.28;;;2.15;;
42668;SDS011;29384;42.028;21.388;2023-06-04T02:37:10;3.55;;;1.80;;
42668;SDS011;29384;42.028;21.388;2023-06-04T02:39:35;2.22;;;1.80;;
42668;SDS011;29384;42.028;21.388;2023-06-04T02:45:03;2.15;;;1.50;;
42668;SDS011;29384;42.028;21.388;2023-06-04T02:47:29;1.20;;;1.10;;
42668;SDS011;29384;42.028;21.388;2023-06-04T02:49:54;1.50;;;1.10;;
42668;SDS011;29384;42.028;21.388;2023-06-04T02:52:19;3.08;;;2.80;;
42668;SDS011;29384;42.028;21.388;2023-06-04T02:54:46;9.52;;;3.88;;
42668;SDS011;29384;42.028;21.388;2023-06-04T03:00:14;4.22;;;3.80;;
42668;SDS011;29384;42.028;21.388;2023-06-04T03:02:40;8.85;;;4.43;;
42668;SDS011;29384;42.028;21.388;2023-06-04T03:05:07;11.32;;;4.47;;
42668;SDS011;29384;42.028;21.388;2023-06-04T03:07:33;4.15;;;3.83;;
42668;SDS011;29384;42.028;21.388;2023-06-04T03:09:58;12.40;;;4.60;;
42668;SDS011;29384;42.028;21.388;2023-06-04T03:15:26;5.45;;;4.03;;
42668;SDS011;29384;42.028;21.388;2023-06-04T03:17:51;6.72;;;4.65;;
42668;SDS011;29384;42.028;21.388;2023-06-04T03:20:16;6.47;;;4.15;;
42668;SDS011;29384;42.028;21.388;2023-06-04T03:22:42;3.83;;;3.22;;
42668;SDS011;29384;42.028;21.388;2023-06-04T03:25:07;2.25;;;2.13;;
42668;SDS011;29384;42.028;21.388;2023-06-04T03:30:35;1.55;;;1.45;;
42668;SDS011;29384;42.028;21.388;2023-06-04T03:33:01;1.15;;;0.90;;
42668;SDS011;29384;42.028;21.388;2023-06-04T03:35:27;1.70;;;1.63;;
42668;SDS011;29384;42.028;21.388;2023-06-04T03:37:52;1.25;;;1.25;;
42668;SDS011;29384;42.028;21.388;2023-06-04T03:40:17;2.00;;;1.27;;
42668;SDS011;29384;42.028;21.388;2023-06-04T03:45:45;0.90;;;0.90;;
42668;SDS011;29384;42.028;21.388;2023-06-04T03:48:11;1.17;;;1.08;;
42668;SDS011;29384;42.028;21.388;2023-06-04T03:50:36;1.55;;;1.55;;
42668;SDS011;29384;42.028;21.388;2023-06-04T03:53:02;3.83;;;1.52;;
42668;SDS011;29384;42.028;21.388;2023-06-04T03:55:30;5.55;;;2.17;;
42668;SDS011;29384;42.028;21.388;2023-06-04T04:00:59;2.35;;;2.22;;
42668;SDS011;29384;42.028;21.388;2023-06-04T04:03:26;4.13;;;2.47;;
42668;SDS011;29384;42.028;21.388;2023-06-04T04:05:55;2.45;;;2.35;;
42668;SDS011;29384;42.028;21.388;2023-06-04T04:08:21;3.00;;;2.90;;
42668;SDS011;29384;42.028;21.388;2023-06-04T04:10:47;4.47;;;3.45;;
42668;SDS011;29384;42.028;21.388;2023-06-04T04:13:12;11.15;;;4.85;;
42668;SDS011;29384;42.028;21.388;2023-06-04T04:15:37;6.90;;;4.50;;
42668;SDS011;29384;42.028;21.388;2023-06-04T04:18:02;5.03;;;4.15;;
42668;SDS011;29384;42.028;21.388;2023-06-04T04:20:28;4.63;;;4.25;;
42668;SDS011;29384;42.028;21.388;2023-06-04T04:22:53;4.10;;;3.80;;
42668;SDS011;29384;42.028;21.388;2023-06-04T04:25:18;4.40;;;3.80;;
42668;SDS011;29384;42.028;21.388;2023-06-04T04:30:46;3.83;;;2.78;;
42668;SDS011;29384;42.028;21.388;2023-06-04T04:33:12;4.93;;;4.40;;
42668;SDS011;29384;42.028;21.388;2023-06-04T04:35:40;5.28;;;2.40;;
42668;SDS011;29384;42.028;21.388;2023-06-04T04:38:07;2.80;;;2.47;;
42668;SDS011;29384;42.028;21.388;2023-06-04T04:40:33;5.45;;;2.88;;
42668;SDS011;29384;42.028;21.388;2023-06-04T04:46:29;5.20;;;2.75;;
42668;SDS011;29384;42.028;21.388;2023-06-04T04:48:55;3.30;;;3.17;;
42668;SDS011;29384;42.028;21.388;2023-06-04T04:51:20;4.88;;;3.20;;
42668;SDS011;29384;42.028;21.388;2023-06-04T04:53:46;3.83;;;2.65;;
42668;SDS011;29384;42.028;21.388;2023-06-04T04:56:11;2.38;;;2.17;;
42668;SDS011;29384;42.028;21.388;2023-06-04T04:58:36;2.22;;;2.13;;
42668;SDS011;29384;42.028;21.388;2023-06-04T05:01:02;2.72;;;2.55;;
42668;SDS011;29384;42.028;21.388;2023-06-04T05:03:27;3.38;;;3.00;;
42668;SDS011;29384;42.028;21.388;2023-06-04T05:05:52;2.17;;;2.13;;
42668;SDS011;29384;42.028;21.388;2023-06-04T05:08:17;2.70;;;2.60;;
42668;SDS011;29384;42.028;21.388;2023-06-04T05:10:43;2.42;;;2.28;;
42668;SDS011;29384;42.028;21.388;2023-06-04T05:16:11;5.22;;;2.80;;
42668;SDS011;29384;42.028;21.388;2023-06-04T05:18:37;5.95;;;3.33;;
42668;SDS011;29384;42.028;21.388;2023-06-04T05:21:05;2.72;;;2.55;;
42668;SDS011;29384;42.028;21.388;2023-06-04T05:23:31;2.60;;;2.50;;
42668;SDS011;29384;42.028;21.388;2023-06-04T05:25:57;3.03;;;2.83;;
42668;SDS011;29384;42.028;21.388;2023-06-04T05:31:25;4.90;;;3.00;;
42668;SDS011;29384;42.028;21.388;2023-06-04T05:33:53;3.65;;;3.05;;
42668;SDS011;29384;42.028;21.388;2023-06-04T05:36:19;14.95;;;3.38;;
42668;SDS011;29384;42.028;21.388;2023-06-04T05:38:44;3.63;;;3.33;;
42668;SDS011;29384;42.028;21.388;2023-06-04T05:41:09;3.53;;;2.80;;
42668;SDS011;29384;42.028;21.388;2023-06-04T05:46:38;4.50;;;2.92;;
42668;SDS011;29384;42.028;21.388;2023-06-04T05:49:05;2.22;;;2.13;;
42668;SDS011;29384;42.028;21.388;2023-06-04T05:51:30;2.83;;;2.72;;
42668;SDS011;29384;42.028;21.388;2023-06-04T05:53:56;2.70;;;2.58;;
42668;SDS011;29384;42.028;21.388;2023-06-04T05:56:21;3.33;;;1.00;;
42668;SDS011;29384;42.028;21.388;2023-06-04T06:01:49;0.40;;;0.40;;
42668;SDS011;29384;42.028;21.388;2023-06-04T06:04:15;0.93;;;0.80;;
42668;SDS011;29384;42.028;21.388;2023-06-04T06:06:40;0.60;;;0.60;;
42668;SDS011;29384;42.028;21.388;2023-06-04T06:09:09;0.65;;;0.47;;
42668;SDS011;29384;42.028;21.388;2023-06-04T06:11:34;0.47;;;0.47;;
42668;SDS011;29384;42.028;21.388;2023-06-04T06:13:59;1.45;;;0.80;;
42668;SDS011;29384;42.028;21.388;2023-06-04T06:16:25;0.40;;;0.40;;
42668;SDS011;29384;42.028;21.388;2023-06-04T06:18:50;0.65;;;0.65;;
42668;SDS011;29384;42.028;21.388;2023-06-04T06:21:15;0.60;;;0.60;;
42668;SDS011;29384;42.028;21.388;2023-06-04T06:23:41;0.30;;;0.30;;
42668;SDS011;29384;42.028;21.388;2023-06-04T06:26:06;0.63;;;0.63;;
42668;SDS011;29384;42.028;21.388;2023-06-04T06:31:35;0.38;;;0.38;;
42668;SDS011;29384;42.028;21.388;2023-06-04T06:34:01;0.50;;;0.50;;
42668;SDS011;29384;42.028;21.388;2023-06-04T06:36:26;0.30;;;0.30;;
42668;SDS011;29384;42.028;21.388;2023-06-04T06:38:53;0.40;;;0.40;;
42668;SDS011;29384;42.028;21.388;2023-06-04T06:41:18;0.20;;;0.20;;
42668;SDS011;29384;42.028;21.388;2023-06-04T06:46:47;0.50;;;0.50;;
42668;SDS011;29384;42.028;21.388;2023-06-04T06:49:13;0.30;;;0.30;;
42668;SDS011;29384;42.028;21.388;2023-06-04T06:51:39;0.75;;;0.40;;
42668;SDS011;29384;42.028;21.388;2023-06-04T06:54:04;0.50;;;0.50;;
42668;SDS011;29384;42.028;21.388;2023-06-04T06:56:30;0.38;;;0.38;;
42668;SDS011;29384;42.028;21.388;2023-06-04T07:01:58;0.22;;;0.22;;
42668;SDS011;29384;42.028;21.388;2023-06-04T07:04:23;0.40;;;0.40;;
42668;SDS011;29384;42.028;21.388;2023-06-04T07:06:48;0.30;;;0.30;;
42668;SDS011;29384;42.028;21.388;2023-06-04T07:09:14;0.40;;;0.40;;
42668;SDS011;29384;42.028;21.388;2023-06-04T07:11:39;0.20;;;0.20;;
42668;SDS011;29384;42.028;21.388;2023-06-04T07:17:07;0.35;;;0.35;;
42668;SDS011;29384;42.028;21.388;2023-06-04T07:19:32;0.73;;;0.30;;
42668;SDS011;29384;42.028;21.388;2023-06-04T07:21:58;0.70;;;0.70;;
42668;SDS011;29384;42.028;21.388;2023-06-04T07:24:23;0.85;;;0.32;;
42668;SDS011;29384;42.028;21.388;2023-06-04T07:26:48;0.20;;;0.20;;
42668;SDS011;29384;42.028;21.388;2023-06-04T07:32:16;0.20;;;0.20;;
42668;SDS011;29384;42.028;21.388;2023-06-04T07:34:41;0.50;;;0.50;;
42668;SDS011;29384;42.028;21.388;2023-06-04T07:37:07;0.55;;;0.55;;
42668;SDS011;29384;42.028;21.388;2023-06-04T07:39:34;0.40;;;0.40;;
42668;SDS011;29384;42.028;21.388;2023-06-04T07:41:59;0.35;;;0.35;;
42668;SDS011;29384;42.028;21.388;2023-06-04T07:47:27;1.45;;;0.68;;
42668;SDS011;29384;42.028;21.388;2023-06-04T07:49:52;0.38;;;0.30;;
42668;SDS011;29384;42.028;21.388;2023-06-04T07:52:18;0.40;;;0.40;;
42668;SDS011;29384;42.028;21.388;2023-06-04T07:54:43;0.40;;;0.40;;
42668;SDS011;29384;42.028;21.388;2023-06-04T07:57:09;0.50;;;0.50;;
42668;SDS011;29384;42.028;21.388;2023-06-04T07:59:35;2.95;;;0.55;;
42668;SDS011;29384;42.028;21.388;2023-06-04T08:02:00;0.77;;;0.47;;
42668;SDS011;29384;42.028;21.388;2023-06-04T08:04:25;5.57;;;0.55;;
42668;SDS011;29384;42.028;21.388;2023-06-04T08:06:51;2.65;;;0.50;;
42668;SDS011;29384;42.028;21.388;2023-06-04T08:09:17;0.85;;;0.70;;
42668;SDS011;29384;42.028;21.388;2023-06-04T08:11:43;0.65;;;0.65;;
42668;SDS011;29384;42.028;21.388;2023-06-04T08:17:12;1.45;;;1.00;;
42668;SDS011;29384;42.028;21.388;2023-06-04T08:19:37;0.77;;;0.77;;
42668;SDS011;29384;42.028;21.388;2023-06-04T08:22:02;3.63;;;0.85;;
42668;SDS011;29384;42.028;21.388;2023-06-04T08:24:27;2.20;;;0.82;;
42668;SDS011;29384;42.028;21.388;2023-06-04T08:26:53;0.85;;;0.85;;
42668;SDS011;29384;42.028;21.388;2023-06-04T08:32:21;0.70;;;0.70;;
42668;SDS011;29384;42.028;21.388;2023-06-04T08:34:46;4.25;;;1.02;;
42668;SDS011;29384;42.028;21.388;2023-06-04T08:37:11;0.60;;;0.60;;
42668;SDS011;29384;42.028;21.388;2023-06-04T08:39:37;1.17;;;1.17;;
42668;SDS011;29384;42.028;21.388;2023-06-04T08:42:06;0.57;;;0.57;;
42668;SDS011;29384;42.028;21.388;2023-06-04T08:47:35;2.08;;;0.47;;
42668;SDS011;29384;42.028;21.388;2023-06-04T08:50:01;1.75;;;1.27;;
42668;SDS011;29384;42.028;21.388;2023-06-04T08:52:27;1.92;;;1.23;;
42668;SDS011;29384;42.028;21.388;2023-06-04T08:54:53;3.45;;;1.15;;
42668;SDS011;29384;42.028;21.388;2023-06-04T08:57:20;6.45;;;1.10;;
42668;SDS011;29384;42.028;21.388;2023-06-04T09:02:49;1.13;;;0.80;;
42668;SDS011;29384;42.028;21.388;2023-06-04T09:05:16;0.90;;;0.90;;
42668;SDS011;29384;42.028;21.388;2023-06-04T09:07:44;0.73;;;0.73;;
42668;SDS011;29384;42.028;21.388;2023-06-04T09:10:11;0.90;;;0.90;;
42668;SDS011;29384;42.028;21.388;2023-06-04T09:12:38;0.70;;;0.70;;
42668;SDS011;29384;42.028;21.388;2023-06-04T09:15:05;0.90;;;0.90;;
42668;SDS011;29384;42.028;21.388;2023-06-04T09:17:31;0.50;;;0.50;;
42668;SDS011;29384;42.028;21.388;2023-06-04T09:19:56;1.02;;;0.95;;
42668;SDS011;29384;42.028;21.388;2023-06-04T09:22:31;0.63;;;0.63;;
42668;SDS011;29384;42.028;21.388;2023-06-04T09:24:56;1.48;;;0.50;;
42668;SDS011;29384;42.028;21.388;2023-06-04T09:27:22;0.50;;;0.50;;
42668;SDS011;29384;42.028;21.388;2023-06-04T09:32:50;0.60;;;0.60;;
42668;SDS011;29384;42.028;21.388;2023-06-04T09:35:18;0.70;;;0.70;;
42668;SDS011;29384;42.028;21.388;2023-06-04T09:37:54;0.50;;;0.50;;
42668;SDS011;29384;42.028;21.388;2023-06-04T09:40:20;0.88;;;0.88;;
42668;SDS011;29384;42.028;21.388;2023-06-04T09:42:46;0.75;;;0.75;;
42668;SDS011;29384;42.028;21.388;2023-06-04T09:45:25;0.60;;;0.60;;
42668;SDS011;29384;42.028;21.388;2023-06-04T09:47:51;0.98;;;0.60;;
42668;SDS011;29384;42.028;21.388;2023-06-04T09:50:16;6.20;;;1.10;;
42668;SDS011;29384;42.028;21.388;2023-06-04T09:52:49;12.88;;;1.30;;
42668;SDS011;29384;42.028;21.388;2023-06-04T09:55:16;0.50;;;0.45;;
42668;SDS011;29384;42.028;21.388;2023-06-04T09:57:46;2.47;;;1.25;;
42668;SDS011;29384;42.028;21.388;2023-06-04T10:03:14;1.85;;;0.98;;
42668;SDS011;29384;42.028;21.388;2023-06-04T10:05:40;0.38;;;0.38;;
42668;SDS011;29384;42.028;21.388;2023-06-04T10:08:06;0.85;;;0.85;;
42668;SDS011;29384;42.028;21.388;2023-06-04T10:10:35;0.80;;;0.80;;
42668;SDS011;29384;42.028;21.388;2023-06-04T10:13:05;1.27;;;0.70;;
42668;SDS011;29384;42.028;21.388;2023-06-04T10:15:31;0.80;;;0.80;;
42668;SDS011;29384;42.028;21.388;2023-06-04T10:17:59;0.80;;;0.80;;
42668;SDS011;29384;42.028;21.388;2023-06-04T10:20:24;0.70;;;0.70;;
42668;SDS011;29384;42.028;21.388;2023-06-04T10:22:50;0.77;;;0.77;;
42668;SDS011;29384;42.028;21.388;2023-06-04T10:25:16;1.17;;;1.17;;
42668;SDS011;29384;42.028;21.388;2023-06-04T10:27:42;0.70;;;0.70;;
42668;SDS011;29384;42.028;21.388;2023-06-04T10:33:09;0.70;;;0.70;;
42668;SDS011;29384;42.028;21.388;2023-06-04T10:35:35;0.65;;;0.65;;
42668;SDS011;29384;42.028;21.388;2023-06-04T10:38:05;5.35;;;1.08;;
42668;SDS011;29384;42.028;21.388;2023-06-04T10:40:31;0.70;;;0.70;;
42668;SDS011;29384;42.028;21.388;2023-06-04T10:43:03;2.58;;;0.90;;
42668;SDS011;29384;42.028;21.388;2023-06-04T10:48:31;0.80;;;0.80;;
42668;SDS011;29384;42.028;21.388;2023-06-04T10:50:57;0.90;;;0.90;;
42668;SDS011;29384;42.028;21.388;2023-06-04T10:53:22;2.58;;;1.27;;
42668;SDS011;29384;42.028;21.388;2023-06-04T10:55:48;1.20;;;1.08;;
42668;SDS011;29384;42.028;21.388;2023-06-04T10:58:13;1.02;;;0.93;;
42668;SDS011;29384;42.028;21.388;2023-06-04T11:00:42;0.77;;;0.77;;
42668;SDS011;29384;42.028;21.388;2023-06-04T11:03:09;0.82;;;0.82;;
42668;SDS011;29384;42.028;21.388;2023-06-04T11:05:35;0.80;;;0.80;;
42668;SDS011;29384;42.028;21.388;2023-06-04T11:08:00;1.35;;;1.00;;
42668;SDS011;29384;42.028;21.388;2023-06-04T11:10:30;0.82;;;0.82;;
42668;SDS011;29384;42.028;21.388;2023-06-04T11:12:57;0.50;;;0.50;;
42668;SDS011;29384;42.028;21.388;2023-06-04T11:18:25;4.10;;;1.40;;
42668;SDS011;29384;42.028;21.388;2023-06-04T11:20:58;3.70;;;1.33;;
42668;SDS011;29384;42.028;21.388;2023-06-04T11:23:24;0.68;;;0.68;;
42668;SDS011;29384;42.028;21.388;2023-06-04T11:25:49;0.70;;;0.70;;
42668;SDS011;29384;42.028;21.388;2023-06-04T11:28:17;5.22;;;1.20;;
42668;SDS011;29384;42.028;21.388;2023-06-04T11:34:04;0.90;;;0.90;;
42668;SDS011;29384;42.028;21.388;2023-06-04T11:36:29;1.42;;;1.35;;
42668;SDS011;29384;42.028;21.388;2023-06-04T11:38:56;1.00;;;1.00;;
42668;SDS011;29384;42.028;21.388;2023-06-04T11:41:24;3.10;;;0.98;;
42668;SDS011;29384;42.028;21.388;2023-06-04T11:43:52;0.98;;;0.98;;
42668;SDS011;29384;42.028;21.388;2023-06-04T11:46:17;1.02;;;1.02;;
42668;SDS011;29384;42.028;21.388;2023-06-04T11:48:42;1.05;;;0.75;;
42668;SDS011;29384;42.028;21.388;2023-06-04T11:51:09;0.88;;;0.88;;
42668;SDS011;29384;42.028;21.388;2023-06-04T11:53:36;1.42;;;1.33;;
42668;SDS011;29384;42.028;21.388;2023-06-04T11:56:01;1.30;;;1.30;;
42668;SDS011;29384;42.028;21.388;2023-06-04T11:58:27;1.00;;;1.00;;
42668;SDS011;29384;42.028;21.388;2023-06-04T12:03:55;0.85;;;0.85;;
42668;SDS011;29384;42.028;21.388;2023-06-04T12:06:20;0.82;;;0.82;;
42668;SDS011;29384;42.028;21.388;2023-06-04T12:08:50;4.50;;;0.80;;
42668;SDS011;29384;42.028;21.388;2023-06-04T12:13:50;4.28;;;1.35;;
42668;SDS011;29384;42.028;21.388;2023-06-04T12:16:15;1.95;;;0.75;;
42668;SDS011;29384;42.028;21.388;2023-06-04T12:18:40;2.40;;;0.95;;
42668;SDS011;29384;42.028;21.388;2023-06-04T12:21:15;0.82;;;0.82;;
42668;SDS011;29384;42.028;21.388;2023-06-04T12:23:41;0.65;;;0.65;;
42668;SDS011;29384;42.028;21.388;2023-06-04T12:26:06;1.13;;;1.08;;
42668;SDS011;29384;42.028;21.388;2023-06-04T12:28:32;2.38;;;1.00;;
42668;SDS011;29384;42.028;21.388;2023-06-04T12:34:00;1.02;;;1.02;;
42668;SDS011;29384;42.028;21.388;2023-06-04T12:36:26;1.33;;;1.02;;
42668;SDS011;29384;42.028;21.388;2023-06-04T12:38:51;0.88;;;0.73;;
42668;SDS011;29384;42.028;21.388;2023-06-04T12:41:16;0.85;;;0.85;;
42668;SDS011;29384;42.028;21.388;2023-06-04T12:43:41;0.95;;;0.95;;
42668;SDS011;29384;42.028;21.388;2023-06-04T12:49:22;0.82;;;0.82;;
42668;SDS011;29384;42.028;21.388;2023-06-04T12:51:48;1.05;;;0.95;;
42668;SDS011;29384;42.028;21.388;2023-06-04T12:54:13;0.60;;;0.55;;
42668;SDS011;29384;42.028;21.388;2023-06-04T12:56:39;0.60;;;0.60;;
42668;SDS011;29384;42.028;21.388;2023-06-04T12:59:05;1.10;;;1.10;;
42668;SDS011;29384;42.028;21.388;2023-06-04T13:01:30;0.93;;;0.93;;
42668;SDS011;29384;42.028;21.388;2023-06-04T13:03:56;0.85;;;0.85;;
42668;SDS011;29384;42.028;21.388;2023-06-04T13:06:21;1.25;;;1.15;;
42668;SDS011;29384;42.028;21.388;2023-06-04T13:08:46;2.15;;;1.55;;
42668;SDS011;29384;42.028;21.388;2023-06-04T13:11:11;1.15;;;1.08;;
42668;SDS011;29384;42.028;21.388;2023-06-04T13:13:38;1.38;;;1.38;;
42668;SDS011;29384;42.028;21.388;2023-06-04T13:19:06;1.23;;;0.95;;
42668;SDS011;29384;42.028;21.388;2023-06-04T13:21:31;4.78;;;1.65;;
42668;SDS011;29384;42.028;21.388;2023-06-04T13:23:57;1.23;;;1.13;;
42668;SDS011;29384;42.028;21.388;2023-06-04T13:26:22;1.40;;;1.30;;
42668;SDS011;29384;42.028;21.388;2023-06-04T13:28:47;0.75;;;0.75;;
42668;SDS011;29384;42.028;21.388;2023-06-04T13:34:15;0.90;;;0.90;;
42668;SDS011;29384;42.028;21.388;2023-06-04T13:36:41;2.30;;;0.82;;
42668;SDS011;29384;42.028;21.388;2023-06-04T13:39:06;0.85;;;0.85;;
42668;SDS011;29384;42.028;21.388;2023-06-04T13:41:32;18.23;;;1.70;;
42668;SDS011;29384;42.028;21.388;2023-06-04T13:43:57;0.98;;;0.88;;
42668;SDS011;29384;42.028;21.388;2023-06-04T13:49:25;1.40;;;1.30;;
42668;SDS011;29384;42.028;21.388;2023-06-04T13:51:50;1.25;;;1.25;;
42668;SDS011;29384;42.028;21.388;2023-06-04T13:54:16;1.23;;;0.60;;
42668;SDS011;29384;42.028;21.388;2023-06-04T13:56:41;1.00;;;1.00;;
42668;SDS011;29384;42.028;21.388;2023-06-04T13:59:06;0.60;;;0.60;;
42668;SDS011;29384;42.028;21.388;2023-06-04T14:04:34;18.40;;;1.33;;
42668;SDS011;29384;42.028;21.388;2023-06-04T14:07:00;1.10;;;0.98;;
42668;SDS011;29384;42.028;21.388;2023-06-04T14:09:25;1.98;;;1.88;;
42668;SDS011;29384;42.028;21.388;2023-06-04T14:11:50;4.90;;;1.10;;
42668;SDS011;29384;42.028;21.388;2023-06-04T14:14:16;1.20;;;1.08;;
42668;SDS011;29384;42.028;21.388;2023-06-04T14:19:47;2.58;;;1.27;;
42668;SDS011;29384;42.028;21.388;2023-06-04T14:22:12;3.78;;;1.38;;
42668;SDS011;29384;42.028;21.388;2023-06-04T14:24:39;0.85;;;0.85;;
42668;SDS011;29384;42.028;21.388;2023-06-04T14:27:05;1.40;;;1.30;;
42668;SDS011;29384;42.028;21.388;2023-06-04T14:29:31;9.65;;;1.85;;
42668;SDS011;29384;42.028;21.388;2023-06-04T14:35:00;1.08;;;1.05;;
42668;SDS011;29384;42.028;21.388;2023-06-04T14:37:25;1.25;;;1.23;;
42668;SDS011;29384;42.028;21.388;2023-06-04T14:39:50;1.20;;;1.20;;
42668;SDS011;29384;42.028;21.388;2023-06-04T14:42:16;1.42;;;1.42;;
42668;SDS011;29384;42.028;21.388;2023-06-04T14:44:41;2.00;;;1.63;;
42668;SDS011;29384;42.028;21.388;2023-06-04T14:50:09;2.85;;;2.75;;
42668;SDS011;29384;42.028;21.388;2023-06-04T14:52:35;2.40;;;2.30;;
42668;SDS011;29384;42.028;21.388;2023-06-04T14:55:00;2.03;;;1.92;;
42668;SDS011;29384;42.028;21.388;2023-06-04T14:57:25;5.78;;;2.10;;
42668;SDS011;29384;42.028;21.388;2023-06-04T14:59:50;3.70;;;2.08;;
42668;SDS011;29384;42.028;21.388;2023-06-04T15:05:19;1.42;;;1.33;;
42668;SDS011;29384;42.028;21.388;2023-06-04T15:07:44;1.67;;;1.58;;
42668;SDS011;29384;42.028;21.388;2023-06-04T15:10:09;1.33;;;1.33;;
42668;SDS011;29384;42.028;21.388;2023-06-04T15:12:35;1.50;;;1.48;;
42668;SDS011;29384;42.028;21.388;2023-06-04T15:15:07;1.35;;;1.35;;
42668;SDS011;29384;42.028;21.388;2023-06-04T15:17:33;3.83;;;1.83;;
42668;SDS011;29384;42.028;21.388;2023-06-04T15:19:59;5.45;;;2.20;;
42668;SDS011;29384;42.028;21.388;2023-06-04T15:22:24;4.15;;;1.52;;
42668;SDS011;29384;42.028;21.388;2023-06-04T15:24:51;1.65;;;1.65;;
42668;SDS011;29384;42.028;21.388;2023-06-04T15:27:16;1.88;;;1.77;;
42668;SDS011;29384;42.028;21.388;2023-06-04T15:29:42;2.67;;;2.22;;
42668;SDS011;29384;42.028;21.388;2023-06-04T15:35:10;7.43;;;4.10;;
42668;SDS011;29384;42.028;21.388;2023-06-04T15:37:36;3.20;;;2.20;;
42668;SDS011;29384;42.028;21.388;2023-06-04T15:40:01;1.85;;;1.70;;
42668;SDS011;29384;42.028;21.388;2023-06-04T15:42:28;3.17;;;1.85;;
42668;SDS011;29384;42.028;21.388;2023-06-04T15:44:53;1.83;;;1.50;;
42668;SDS011;29384;42.028;21.388;2023-06-04T15:50:21;4.05;;;2.38;;
42668;SDS011;29384;42.028;21.388;2023-06-04T15:52:47;1.67;;;1.48;;
42668;SDS011;29384;42.028;21.388;2023-06-04T15:55:12;4.18;;;2.60;;
42668;SDS011;29384;42.028;21.388;2023-06-04T15:57:37;5.35;;;2.30;;
42668;SDS011;29384;42.028;21.388;2023-06-04T16:00:03;1.90;;;1.83;;
42668;SDS011;29384;42.028;21.388;2023-06-04T16:05:31;1.42;;;1.42;;
42668;SDS011;29384;42.028;21.388;2023-06-04T16:07:57;1.65;;;1.58;;
42668;SDS011;29384;42.028;21.388;2023-06-04T16:10:22;1.92;;;1.90;;
42668;SDS011;29384;42.028;21.388;2023-06-04T16:12:47;4.35;;;2.75;;
42668;SDS011;29384;42.028;21.388;2023-06-04T16:15:13;5.22;;;3.08;;
42668;SDS011;29384;42.028;21.388;2023-06-04T16:20:42;2.70;;;1.98;;
42668;SDS011;29384;42.028;21.388;2023-06-04T16:23:07;6.78;;;2.15;;
42668;SDS011;29384;42.028;21.388;2023-06-04T16:25:32;1.70;;;1.60;;
42668;SDS011;29384;42.028;21.388;2023-06-04T16:27:58;2.15;;;1.60;;
42668;SDS011;29384;42.028;21.388;2023-06-04T16:30:23;2.05;;;1.95;;
42668;SDS011;29384;42.028;21.388;2023-06-04T16:35:51;2.63;;;2.47;;
42668;SDS011;29384;42.028;21.388;2023-06-04T16:38:17;2.30;;;2.10;;
42668;SDS011;29384;42.028;21.388;2023-06-04T16:40:43;3.28;;;2.08;;
42668;SDS011;29384;42.028;21.388;2023-06-04T16:43:08;2.88;;;1.92;;
42668;SDS011;29384;42.028;21.388;2023-06-04T16:45:33;1.80;;;1.70;;
42668;SDS011;29384;42.028;21.388;2023-06-04T16:51:02;7.78;;;2.75;;
42668;SDS011;29384;42.028;21.388;2023-06-04T16:53:27;3.15;;;2.45;;
42668;SDS011;29384;42.028;21.388;2023-06-04T16:55:55;2.60;;;2.50;;
42668;SDS011;29384;42.028;21.388;2023-06-04T16:58:20;3.95;;;3.08;;
42668;SDS011;29384;42.028;21.388;2023-06-04T17:00:46;2.05;;;1.63;;
42668;SDS011;29384;42.028;21.388;2023-06-04T17:06:16;2.75;;;2.28;;
42668;SDS011;29384;42.028;21.388;2023-06-04T17:08:41;1.70;;;1.70;;
42668;SDS011;29384;42.028;21.388;2023-06-04T17:11:06;2.15;;;2.05;;
42668;SDS011;29384;42.028;21.388;2023-06-04T17:13:32;6.47;;;3.25;;
42668;SDS011;29384;42.028;21.388;2023-06-04T17:15:57;6.40;;;4.10;;